首页
METAR-TAF:

METAR-TAF

机场 :

Hunter Army Airfield / Fort Stewart

薩凡納, 喬治亞, 美国

纬度: 32-01N, 经度: 081-09W, 海拔: 13米

当前天气观测

该预报发布于1小时和8分钟前的18:56 UTC
风速14节,风向东转东北,有时为24节阵风
温度 23°C
湿度 69%
气压 1023 hPa
能見度: 16.1公里
散云层高于2100英尺
散云层高于7000英尺

METAR: KSVN 311856Z AUTO 06014G24KT 10SM SCT021 SCT070 23/17 A3021 RMK AO2 SLP233 T02330168 $

时间: 16:04 (20:04 UTC)

预报

该预报发布于8小时和4分钟前的12:00 UTC
预报有效从31日的 12点(UTC)到 01日的 18点(UTC)
风速12节,风向北转东北
能见度10公里或以上
散云层高于2000英尺
成为
从 31日的 15点(UTC)到 31日的 16点(UTC)
风速15节,风向东北,有时为20节阵风
能见度10公里或以上
多云层高于2000英尺
成为
从 01日的 02点(UTC)到 01日的 03点(UTC)
风速12节,风向
能见度10公里或以上
少量云层高于3000英尺
成为
从 01日的 05点(UTC)到 01日的 06点(UTC)
风速9节,风向东转东南
能见度10公里或以上
少量云层高于3500英尺
成为
从 01日的 08点(UTC)到 01日的 09点(UTC)
风速6节,风向多变
能见度10公里或以上
多云层高于3000英尺
成为
从 01日的 17点(UTC)到 01日的 18点(UTC)
风速10节,风向西转西南,有时为15节阵风
能见度10公里或以上
少量云层高于5000英尺

TAF: KSVN 311200Z 3112/0118 02012KT 9999 SCT020 QNH3019INS BECMG 3115/3116 05015G20KT 9999 BKN020 QNH3021INS BECMG 0102/0103 10012KT 9999 FEW030 QNH3023INS BECMG 0105/0106 11009KT 9999 FEW035 QNH3018INS BECMG 0108/0109 VRB06KT 9999 BKN030 QNH3016INS BECMG 0117/0118 25010G15KT 9999 FEW050 QNH3007INS TX24/3121Z TN12/3112Z

超过4000个机场的气象观测和天气预报(METAR&TAF报告)。

可查询的气象台以黄色和红色小点在地图上表示。

将鼠标移到小点上方,可查看气象台名称。

然后点击查看天气观测和预报。

如需切换地图:点击带黑十字的绿色按钮放大地图;点击带横线的绿色按钮缩小地图;或者点击绿色箭头查看邻近地区的地图。


METAR-TAF: